Airfield :







YOU CAN JOIN US ON...

 
LOGIN :

Register | Disclaimer

   EN    FR    IT 

 









Legend :    VFR   Marginal VFR   IFR   Intensive IFR   Very Intensive IFR
Visi :
Ceiling :
>= 8 km
>= 3000ft
5 to 8 km
1000 to 3000 ft
1500m to 5 km
500 to 1000 ft
800 to 1500m
200 to 500 ft
< 800m
< 200 ft
Symbols :   Thunderstorms  Fog  Heavy snow  Heavy precipitations  Wind > 20 kt






- Airport Elevation : 1161 ft


KBML - Berlin Regional

CURRENT METAR :
  • 120552Z AUTO VRB06KT 9SM BKN033 BKN044 M07/M12 A3025 RMK AO2 SNB11E46 SLP265 P0001 60004 T10671122 11033 21078 53031

EXPIRED METARs :
  • 120537Z AUTO 30010G16KT 3SM -SN OVC019 M07/M11 A3024 RMK AO2 SNB11 P0001 T10671111
  • 120534Z AUTO 29008G17KT 260V340 1 1/2SM -SN OVC019 M07/M11 A3024 RMK AO2 SNB11 P0001 T10671106
  • 120522Z AUTO 30007G17KT 270V340 1/4SM +SN VV013 M07/M10 A3023 RMK AO2 SNB11 P0001 T10671100
  • 120515Z AUTO 29009G17KT 1 1/2SM -SN BKN021 M06/M11 A3023 RMK AO2 SNB11 P0000 T10611111
  • 120452Z AUTO 29013G24KT 9SM FEW034 FEW044 M06/M13 A3021 RMK AO2 SLP249 T10561128 410111089
  • 120352Z AUTO VRB04KT 10SM SCT034 BKN041 M06/M11 A3017 RMK AO2 SNE16 SLP238 P0000 T10561111
  • 120322Z AUTO VRB04KT 10SM BKN036 OVC070 M06/M09 A3016 RMK AO2 SNE16 P0000 T10561094

TAF N/A



MET'MAP, your aeronautical weather chart ! - Copyright ORBIFLY December 2007 - Disclaimer

ORBIFLY MET'MAP TEAM :

Programming & Development : Alexandra Zaïnal
Concept & original design : Baudouin d'Aumeries
Assistance for programming : Marc-Olivier Méhu
Technical & hardware support : Manuel Goepfert

Contact : metmap@orbifly.com




SOURCES & CREDITS :

   NOAA